Time;durP1;ratioP1;P1;durP2;ratioP2;P2;SDS_P1;SDS_P2;PMS_P1;PMS_P2;Temp;Humidity;BMP_temperature;BMP_pressure;BME280_temperature;BME280_humidity;BME280_pressure;Samples;Min_cycle;Max_cycle;Signal;HPM_P1;HPM_P2
2022/08/30 00:02:51;;;;;;;7.97;4.70;;;;;;;18.86;89.95;100095.06;4971688;28;20050;-80
2022/08/30 00:05:17;;;;;;;6.82;4.47;;;;;;;18.98;88.99;100100.31;4957386;28;20035;-80
2022/08/30 00:07:42;;;;;;;9.93;4.57;;;;;;;18.97;89.17;100095.19;4986721;23;20111;-81
2022/08/30 00:10:09;;;;;;;5.60;4.18;;;;;;;18.98;89.08;100093.94;5030591;28;20539;-81
2022/08/30 00:12:35;;;;;;;7.05;4.35;;;;;;;18.98;89.71;100102.34;5021658;28;20040;-81
2022/08/30 00:15:01;;;;;;;6.85;4.20;;;;;;;18.98;89.39;100100.31;5007381;28;20054;-81
2022/08/30 00:17:27;;;;;;;6.32;4.18;;;;;;;18.95;89.46;100097.72;5021615;28;20052;-81
2022/08/30 00:19:54;;;;;;;5.43;4.00;;;;;;;18.96;89.76;100090.84;5023541;28;20033;-83
2022/08/30 00:22:20;;;;;;;8.18;4.78;;;;;;;18.98;89.68;100096.75;5003563;28;20036;-82
2022/08/30 00:24:46;;;;;;;5.88;4.07;;;;;;;18.96;89.78;100096.47;5029380;28;20124;-83
2022/08/30 00:27:11;;;;;;;7.28;4.50;;;;;;;18.91;89.71;100099.97;5021672;28;20445;-83
2022/08/30 00:29:37;;;;;;;8.70;4.45;;;;;;;18.99;89.87;100101.09;5019961;28;20044;-83
2022/08/30 00:32:03;;;;;;;7.10;4.40;;;;;;;18.96;89.72;100104.91;5004981;28;20132;-83
2022/08/30 00:34:28;;;;;;;9.30;4.30;;;;;;;18.91;90.50;100111.22;4999383;28;20575;-81
2022/08/30 00:36:54;;;;;;;5.85;4.03;;;;;;;18.97;90.50;100109.25;5023251;28;20095;-82
2022/08/30 00:39:19;;;;;;;7.50;4.57;;;;;;;18.97;90.38;100109.25;5023436;28;20041;-81
2022/08/30 00:41:45;;;;;;;7.13;4.55;;;;;;;18.93;89.50;100108.69;5020923;28;20149;-82
2022/08/30 00:46:37;;;;;;;5.95;4.45;;;;;;;18.98;89.98;100116.41;4991081;28;20066;-86
2022/08/30 00:49:06;;;;;;;6.57;4.88;;;;;;;18.91;91.21;100114.03;4976256;28;20584;-87
2022/08/30 00:51:32;;;;;;;8.35;4.55;;;;;;;18.85;91.76;100113.97;4986065;28;20399;-86
2022/08/30 00:53:58;;;;;;;5.63;4.30;;;;;;;18.78;92.24;100127.66;4994663;28;20042;-86
2022/08/30 00:56:24;;;;;;;7.47;5.18;;;;;;;18.71;92.91;100116.84;4985519;28;20045;-86
2022/08/30 00:58:53;;;;;;;6.57;4.40;;;;;;;18.70;92.62;100118.09;4995770;28;20509;-87
2022/08/30 01:04:01;;;;;;;6.70;4.85;;;;;;;18.78;92.33;100113.59;4450703;23;20066;-82
2022/08/30 01:06:27;;;;;;;6.78;5.03;;;;;;;18.84;91.69;100112.44;4967773;28;20493;-82
2022/08/30 01:08:52;;;;;;;10.30;5.00;;;;;;;18.84;92.02;100103.22;4949481;28;20046;-83
2022/08/30 01:11:20;;;;;;;8.73;4.85;;;;;;;18.92;91.79;100112.78;4967205;28;20081;-83
2022/08/30 01:13:47;;;;;;;6.57;5.03;;;;;;;18.87;92.10;100093.81;4962961;28;20134;-83
2022/08/30 01:16:13;;;;;;;8.35;5.32;;;;;;;18.93;91.79;100097.44;4972277;28;20179;-83
2022/08/30 01:18:38;;;;;;;8.05;5.22;;;;;;;18.99;91.49;100101.09;4946527;28;20187;-83
2022/08/30 01:21:07;;;;;;;8.52;4.93;;;;;;;19.02;91.33;100100.88;4965508;28;20181;-80
2022/08/30 01:23:38;;;;;;;10.52;5.90;;;;;;;19.05;91.39;100107.53;4960535;28;20039;-83
2022/08/30 01:26:04;;;;;;;11.10;5.75;;;;;;;19.07;91.34;100096.59;4964094;28;20046;-82
2022/08/30 01:28:31;;;;;;;8.02;5.68;;;;;;;19.08;91.17;100098.16;4970897;28;20038;-82
2022/08/30 01:30:56;;;;;;;7.60;5.50;;;;;;;19.05;92.08;100099.88;4954338;28;20035;-82
2022/08/30 01:33:23;;;;;;;8.50;6.22;;;;;;;19.04;91.95;100091.97;4962227;28;20609;-82
2022/08/30 01:35:52;;;;;;;7.47;5.55;;;;;;;19.04;92.16;100094.78;4963596;28;20162;-82
2022/08/30 01:38:21;;;;;;;6.90;5.70;;;;;;;19.03;92.60;100096.03;4961642;28;20418;-82
2022/08/30 01:40:47;;;;;;;9.18;5.88;;;;;;;19.00;93.02;100092.19;4981598;28;20055;-82
2022/08/30 01:43:13;;;;;;;7.72;5.82;;;;;;;19.00;93.48;100091.41;4965927;28;20380;-82
2022/08/30 01:45:39;;;;;;;8.73;6.13;;;;;;;18.94;93.75;100093.38;4954090;28;20049;-82
2022/08/30 01:48:05;;;;;;;10.02;6.68;;;;;;;18.91;94.10;100085.94;4971149;28;20069;-82
2022/08/30 01:50:30;;;;;;;9.35;6.38;;;;;;;18.83;94.73;100088.41;4970204;28;20502;-82
2022/08/30 01:52:56;;;;;;;12.20;6.47;;;;;;;18.81;95.14;100092.94;4966805;28;20376;-82
2022/08/30 01:55:22;;;;;;;11.07;6.80;;;;;;;18.75;95.56;100086.50;4945327;28;20050;-82
2022/08/30 01:57:48;;;;;;;8.27;6.68;;;;;;;18.71;96.53;100086.72;4962979;28;20053;-82
2022/08/30 02:00:15;;;;;;;8.43;6.72;;;;;;;18.65;96.60;100083.03;4953893;28;20057;-82
2022/08/30 02:02:40;;;;;;;9.07;6.40;;;;;;;18.61;97.19;100077.63;4960213;28;20039;-82
2022/08/30 02:05:06;;;;;;;8.55;6.78;;;;;;;18.57;97.58;100087.53;4964719;28;20855;-81
2022/08/30 02:07:32;;;;;;;11.40;7.57;;;;;;;18.53;98.04;100081.34;4961230;28;20149;-82
2022/08/30 02:09:57;;;;;;;10.13;7.20;;;;;;;18.49;98.39;100067.50;4962925;28;20554;-82
2022/08/30 02:12:23;;;;;;;9.02;7.13;;;;;;;18.42;98.81;100073.53;4964915;28;20049;-82
2022/08/30 02:14:49;;;;;;;9.70;7.63;;;;;;;18.44;99.54;100078.66;4957784;28;20051;-82
2022/08/30 02:17:15;;;;;;;9.65;7.45;;;;;;;18.39;99.79;100070.94;4962407;28;20409;-82
2022/08/30 02:19:41;;;;;;;10.50;7.88;;;;;;;18.42;100.00;100073.53;4936129;28;20050;-82
2022/08/30 02:22:06;;;;;;;9.40;7.25;;;;;;;18.39;100.00;100071.72;4964615;28;20446;-82
2022/08/30 02:24:32;;;;;;;10.88;8.20;;;;;;;18.30;100.00;100063.41;4972034;28;20054;-83
2022/08/30 02:26:58;;;;;;;9.75;7.85;;;;;;;18.37;100.00;100074.22;4936305;28;20046;-83
2022/08/30 02:29:24;;;;;;;11.95;7.75;;;;;;;18.37;100.00;100074.22;4955010;28;20042;-83
2022/08/30 02:31:50;;;;;;;11.23;8.00;;;;;;;18.32;100.00;100062.94;4955794;28;20496;-82
2022/08/30 02:34:16;;;;;;;10.70;8.23;;;;;;;18.35;100.00;100076.75;4958568;28;20481;-83
2022/08/30 02:36:41;;;;;;;10.93;8.02;;;;;;;18.33;100.00;100072.88;4964990;28;20403;-82
2022/08/30 02:39:08;;;;;;;9.70;7.43;;;;;;;18.26;100.00;100064.88;4959366;28;20031;-83
2022/08/30 02:41:34;;;;;;;11.15;8.43;;;;;;;18.28;100.00;100062.38;4962760;28;20075;-83
2022/08/30 02:44:00;;;;;;;11.20;8.20;;;;;;;18.22;100.00;100070.69;4961645;28;20045;-83
2022/08/30 02:46:26;;;;;;;9.15;7.93;;;;;;;18.21;100.00;100071.19;4966568;28;20030;-83
2022/08/30 02:48:52;;;;;;;10.80;8.38;;;;;;;18.13;100.00;100068.00;4958570;28;20051;-83
2022/08/30 02:51:18;;;;;;;10.93;8.10;;;;;;;18.13;100.00;100065.19;4962346;28;20039;-82
2022/08/30 02:53:44;;;;;;;10.05;8.68;;;;;;;18.12;100.00;100066.44;4959796;28;20491;-83
2022/08/30 02:56:10;;;;;;;10.93;8.60;;;;;;;18.07;100.00;100067.16;4959436;28;20090;-83
2022/08/30 02:58:36;;;;;;;11.02;9.18;;;;;;;17.99;100.00;100057.59;4959952;28;20053;-83
2022/08/30 03:01:02;;;;;;;10.13;8.52;;;;;;;17.98;100.00;100064.47;4949130;28;20047;-82
2022/08/30 03:03:27;;;;;;;11.70;8.57;;;;;;;17.98;100.00;100068.06;4967064;28;20034;-83
2022/08/30 03:05:53;;;;;;;15.18;8.93;;;;;;;17.92;100.00;100064.38;4974806;28;20070;-83
2022/08/30 03:08:19;;;;;;;10.95;8.55;;;;;;;17.93;100.00;100073.56;4985828;28;20089;-83
2022/08/30 03:10:44;;;;;;;11.45;8.77;;;;;;;17.95;100.00;100076.69;4978112;28;20121;-83
2022/08/30 03:13:10;;;;;;;8.65;7.75;;;;;;;17.98;100.00;100081.31;4971281;28;20054;-83
2022/08/30 03:15:38;;;;;;;10.30;8.52;;;;;;;17.98;100.00;100075.69;4975091;28;20454;-83
2022/08/30 03:18:03;;;;;;;9.60;8.45;;;;;;;17.99;100.00;100071.63;4971634;28;20105;-83
2022/08/30 03:20:29;;;;;;;9.93;8.38;;;;;;;17.98;100.00;100078.50;4975735;28;20039;-83
2022/08/30 03:22:54;;;;;;;12.27;8.52;;;;;;;17.96;100.00;100072.59;4973803;28;20042;-83
2022/08/30 03:25:20;;;;;;;9.90;8.63;;;;;;;17.97;100.00;100074.91;4974917;28;20038;-83
2022/08/30 03:27:46;;;;;;;10.85;8.07;;;;;;;17.98;100.00;100076.47;4994691;23;20062;-78
2022/08/30 03:30:12;;;;;;;12.52;8.13;;;;;;;18.01;100.00;100080.31;4930052;28;20038;-78
2022/08/30 03:32:38;;;;;;;9.02;8.10;;;;;;;18.00;100.00;100073.16;4977986;28;20043;-78
2022/08/30 03:35:04;;;;;;;9.98;8.65;;;;;;;17.98;100.00;100072.88;4947594;28;20062;-78
2022/08/30 03:37:29;;;;;;;11.10;7.97;;;;;;;17.99;100.00;100082.84;4944469;28;20117;-79
2022/08/30 03:39:55;;;;;;;10.35;9.02;;;;;;;17.96;100.00;100072.59;4973759;28;20048;-78
2022/08/30 03:42:20;;;;;;;10.82;8.57;;;;;;;17.94;100.00;100081.50;4941030;28;20054;-78
2022/08/30 03:44:46;;;;;;;11.32;8.77;;;;;;;17.94;100.00;100075.91;4946346;28;20077;-79
2022/08/30 03:47:11;;;;;;;10.93;8.82;;;;;;;17.95;100.00;100082.28;4960115;28;20061;-78
2022/08/30 03:49:37;;;;;;;13.07;8.20;;;;;;;17.94;100.00;100091.97;4951901;28;20045;-78
2022/08/30 03:52:03;;;;;;;11.05;8.55;;;;;;;17.96;100.00;100100.66;4961371;28;20045;-77
2022/08/30 03:54:29;;;;;;;8.75;7.85;;;;;;;17.97;100.00;100088.16;4945907;28;20410;-78
2022/08/30 03:56:55;;;;;;;11.27;8.23;;;;;;;17.95;100.00;100091.47;4979159;23;20073;-79
2022/08/30 03:59:20;;;;;;;10.48;8.32;;;;;;;17.88;100.00;100093.88;4989730;28;20038;-79
2022/08/30 04:01:46;;;;;;;10.52;8.98;;;;;;;17.84;100.00;100090.50;4990398;28;20530;-79
2022/08/30 04:04:13;;;;;;;10.07;9.00;;;;;;;17.80;100.00;100087.13;4982737;28;20544;-79
2022/08/30 04:06:38;;;;;;;10.63;8.30;;;;;;;17.81;100.00;100094.28;5008207;28;20032;-79
2022/08/30 04:09:04;;;;;;;11.45;8.27;;;;;;;17.80;100.00;100101.94;4986782;28;20085;-79
2022/08/30 04:11:29;;;;;;;10.00;8.20;;;;;;;17.77;100.00;100096.53;4985909;28;20043;-79
2022/08/30 04:13:55;;;;;;;9.27;8.38;;;;;;;17.81;100.00;100108.31;4990162;28;20043;-79
2022/08/30 04:16:22;;;;;;;10.07;8.20;;;;;;;17.80;100.00;100115.19;4987899;28;20124;-79
2022/08/30 04:18:47;;;;;;;10.18;7.88;;;;;;;17.78;100.00;100115.69;5005434;28;20122;-80
2022/08/30 04:21:14;;;;;;;11.00;7.90;;;;;;;17.83;100.00;100122.66;5005239;28;20553;-80
2022/08/30 04:23:40;;;;;;;11.15;8.13;;;;;;;17.85;100.00;100120.91;4988408;28;20533;-79
2022/08/30 04:26:06;;;;;;;10.95;7.93;;;;;;;17.88;100.00;100133.16;4985318;28;20081;-79
2022/08/30 04:28:33;;;;;;;11.35;8.35;;;;;;;17.92;100.00;100134.53;4987330;28;20061;-80
2022/08/30 04:31:02;;;;;;;9.43;8.13;;;;;;;17.95;100.00;100132.81;4987305;28;20038;-80
2022/08/30 04:38:45;;;;;;;11.07;8.10;;;;;;;17.98;100.00;100143.81;4970587;28;20474;-79
2022/08/30 04:41:15;;;;;;;10.32;7.80;;;;;;;17.99;100.00;100155.84;4938783;28;20039;-79
2022/08/30 04:43:41;;;;;;;9.80;8.18;;;;;;;18.02;100.00;100166.09;4954159;28;20129;-79
2022/08/30 04:46:08;;;;;;;9.60;8.00;;;;;;;18.05;100.00;100165.88;4921329;28;20042;-79
2022/08/30 04:48:35;;;;;;;11.85;7.75;;;;;;;18.04;100.00;100153.09;4953145;28;20039;-78
2022/08/30 04:51:06;;;;;;;10.88;7.93;;;;;;;18.13;100.00;100171.88;4956572;28;20046;-78
2022/08/30 04:53:32;;;;;;;11.90;8.23;;;;;;;18.15;100.00;100174.97;4941947;28;20050;-79
2022/08/30 04:55:57;;;;;;;10.75;8.27;;;;;;;18.18;100.00;100179.63;4970202;28;20458;-79
2022/08/30 04:58:23;;;;;;;9.38;8.25;;;;;;;18.19;100.00;100181.16;4939687;28;20042;-79
2022/08/30 05:00:49;;;;;;;10.05;8.43;;;;;;;18.25;100.00;100187.63;4923467;28;20097;-79
2022/08/30 05:03:16;;;;;;;10.18;8.63;;;;;;;18.28;100.00;100183.84;4938144;28;20054;-79
2022/08/30 05:05:47;;;;;;;13.07;8.55;;;;;;;18.32;100.00;100195.66;4940840;28;20118;-79
2022/08/30 05:08:14;;;;;;;12.55;8.35;;;;;;;18.37;100.00;100192.16;4951742;28;20069;-79
2022/08/30 05:10:42;;;;;;;11.43;8.80;;;;;;;18.37;100.00;100202.63;4954356;28;20047;-78
2022/08/30 05:13:09;;;;;;;10.98;8.60;;;;;;;18.36;100.00;100201.84;4939401;28;20418;-80
2022/08/30 05:15:35;;;;;;;10.35;8.38;;;;;;;18.38;100.00;100199.34;4937303;28;20483;-80
2022/08/30 05:18:01;;;;;;;10.98;8.35;;;;;;;18.40;100.00;100207.28;4935021;28;20122;-79
2022/08/30 05:20:26;;;;;;;11.73;8.63;;;;;;;18.42;100.00;100210.38;4968573;28;20070;-80
2022/08/30 05:22:52;;;;;;;11.65;8.43;;;;;;;18.47;100.00;100195.66;4964384;28;20113;-80
2022/08/30 05:25:19;;;;;;;10.95;8.10;;;;;;;18.62;100.00;100208.44;4955632;28;20495;-80
2022/08/30 05:27:45;;;;;;;11.18;8.82;;;;;;;18.64;100.00;100199.53;4955589;28;20050;-80
2022/08/30 05:30:15;;;;;;;10.65;8.52;;;;;;;18.62;100.00;100211.25;4939568;28;20549;-80
2022/08/30 05:32:41;;;;;;;13.93;9.20;;;;;;;18.63;100.00;100207.16;4939350;28;20066;-80
2022/08/30 05:35:08;;;;;;;10.95;8.25;;;;;;;18.56;100.00;100207.56;4939640;28;20515;-80
2022/08/30 05:37:33;;;;;;;11.88;8.68;;;;;;;18.60;100.00;100205.31;4945834;28;20138;-80
2022/08/30 05:40:00;;;;;;;13.65;9.30;;;;;;;18.47;100.00;100196.44;4955819;28;20042;-80
2022/08/30 05:42:25;;;;;;;11.55;8.77;;;;;;;18.50;100.00;100195.44;4971835;28;20413;-79
2022/08/30 05:44:52;;;;;;;9.18;8.27;;;;;;;18.59;100.00;100198.16;4971368;28;20031;-81
2022/08/30 05:47:19;;;;;;;12.32;9.18;;;;;;;18.68;100.00;100199.31;4955693;28;20046;-79
2022/08/30 05:49:44;;;;;;;10.95;8.43;;;;;;;18.69;100.00;100203.66;4971369;28;20177;-80
2022/08/30 05:52:11;;;;;;;10.13;8.98;;;;;;;18.62;100.00;100197.19;4955479;28;20197;-80
2022/08/30 05:54:37;;;;;;;12.55;8.32;;;;;;;18.69;100.00;100207.22;4955376;28;20050;-81
2022/08/30 05:57:02;;;;;;;10.68;8.55;;;;;;;18.67;100.00;100209.78;4988848;28;20446;-80
2022/08/30 05:59:28;;;;;;;12.20;8.23;;;;;;;18.66;100.00;100196.19;5014947;23;20514;-81
2022/08/30 06:01:56;;;;;;;12.63;9.20;;;;;;;18.70;100.00;100217.22;4991808;28;20046;-81
2022/08/30 06:04:22;;;;;;;13.43;9.20;;;;;;;18.82;100.00;100218.16;4991690;28;20057;-82
2022/08/30 06:06:47;;;;;;;11.85;9.00;;;;;;;18.86;100.00;100221.53;4991497;28;20042;-82
2022/08/30 06:09:14;;;;;;;9.40;8.40;;;;;;;19.03;100.00;100225.34;4991595;28;20026;-81
2022/08/30 06:11:41;;;;;;;14.00;9.30;;;;;;;19.07;100.00;100217.47;4991346;28;20406;-83
2022/08/30 06:14:07;;;;;;;11.75;9.10;;;;;;;19.32;100.00;100213.97;4984129;28;20057;-82
2022/08/30 06:16:33;;;;;;;10.20;8.27;;;;;;;19.55;100.00;100215.81;4991660;28;20046;-82
2022/08/30 06:18:59;;;;;;;11.57;8.10;;;;;;;19.73;98.34;100219.59;4991414;28;20266;-82
2022/08/30 06:21:28;;;;;;;9.07;7.68;;;;;;;19.95;97.52;100220.56;4991403;28;20181;-83
2022/08/30 06:23:55;;;;;;;11.90;8.27;;;;;;;20.16;95.95;100223.31;4990994;28;20081;-83
2022/08/30 06:26:20;;;;;;;10.27;7.97;;;;;;;20.43;94.67;100219.97;4991393;28;20102;-82
2022/08/30 06:28:46;;;;;;;9.48;7.53;;;;;;;20.59;92.89;100221.38;4991163;28;20034;-82
2022/08/30 06:31:13;;;;;;;10.60;8.55;;;;;;;20.72;92.08;100216.09;4991150;28;20050;-82
2022/08/30 06:33:39;;;;;;;8.93;7.65;;;;;;;20.78;91.65;100212.06;4991281;28;20113;-82
2022/08/30 06:36:10;;;;;;;10.32;7.43;;;;;;;21.10;90.52;100224.00;4990886;28;20053;-82
2022/08/30 06:38:37;;;;;;;8.70;7.53;;;;;;;21.35;89.05;100217.47;4976680;28;20132;-82
2022/08/30 06:41:14;;;;;;;8.75;7.30;;;;;;;21.14;87.77;100216.13;4989383;28;20042;-81
2022/08/30 06:43:40;;;;;;;10.20;7.72;;;;;;;21.21;86.92;100232.56;4989872;28;20038;-81
2022/08/30 06:46:09;;;;;;;8.85;7.20;;;;;;;21.24;87.60;100219.47;4989545;28;20402;-82
2022/08/30 06:48:35;;;;;;;9.02;7.28;;;;;;;21.28;87.57;100226.41;4989644;28;20065;-82
2022/08/30 06:51:01;;;;;;;9.90;6.95;;;;;;;21.24;86.22;100230.75;4968948;28;20497;-82
2022/08/30 06:53:30;;;;;;;8.20;6.80;;;;;;;21.16;86.53;100235.34;4986822;28;21475;-81
2022/08/30 06:56:00;;;;;;;9.35;6.97;;;;;;;21.35;86.28;100228.00;4987649;28;20589;-82
2022/08/30 06:58:26;;;;;;;10.85;7.13;;;;;;;21.56;83.85;100225.75;4970553;28;20061;-82
2022/08/30 07:00:52;;;;;;;9.70;6.82;;;;;;;21.67;83.50;100217.34;4980019;28;20149;-82
2022/08/30 07:03:18;;;;;;;9.23;6.82;;;;;;;21.90;82.98;100230.22;4970389;28;20593;-82
2022/08/30 07:05:44;;;;;;;9.50;6.78;;;;;;;22.17;81.60;100223.06;4989537;28;20035;-82
2022/08/30 07:08:09;;;;;;;10.07;6.68;;;;;;;22.40;81.93;100226.69;4971189;28;20045;-82
2022/08/30 07:10:39;;;;;;;8.23;6.63;;;;;;;22.63;79.47;100240.28;4989078;28;20121;-82
2022/08/30 07:13:06;;;;;;;8.45;6.45;;;;;;;22.72;79.39;100225.16;4989325;28;20078;-82
2022/08/30 07:15:31;;;;;;;9.20;7.20;;;;;;;22.69;79.17;100241.06;4971987;28;20042;-82
2022/08/30 07:20:41;;;;;;;9.38;6.35;;;;;;;22.90;77.79;100233.06;4989464;28;20074;-82
2022/08/30 07:23:07;;;;;;;12.98;6.80;;;;;;;22.93;77.11;100240.50;4988846;28;20125;-82
2022/08/30 07:25:35;;;;;;;8.98;6.38;;;;;;;22.93;77.35;100234.84;4989443;28;20525;-82
2022/08/30 07:28:00;;;;;;;8.55;6.30;;;;;;;23.15;77.28;100246.13;4989169;28;20043;-82
2022/08/30 07:30:26;;;;;;;10.27;7.43;;;;;;;23.31;76.01;100244.53;4987863;28;20039;-82
2022/08/30 07:32:51;;;;;;;9.07;6.60;;;;;;;23.71;74.25;100243.09;4989442;28;20481;-82
2022/08/30 07:35:17;;;;;;;8.60;6.82;;;;;;;23.77;73.46;100249.50;4988994;28;20050;-82
2022/08/30 07:37:42;;;;;;;9.27;6.68;;;;;;;23.82;73.78;100245.09;4989089;28;20524;-82
2022/08/30 07:40:08;;;;;;;9.88;6.20;;;;;;;23.69;73.58;100243.63;4989326;28;20533;-83
2022/08/30 07:42:34;;;;;;;8.75;6.35;;;;;;;23.83;73.30;100252.28;4968755;28;20157;-82
2022/08/30 07:45:01;;;;;;;13.00;7.10;;;;;;;23.82;72.76;100256.44;4986066;28;20609;-82
2022/08/30 07:47:27;;;;;;;9.23;7.10;;;;;;;23.85;74.10;100252.53;4989069;28;20043;-83
2022/08/30 07:49:52;;;;;;;7.93;6.43;;;;;;;23.93;73.74;100254.31;4988068;28;20030;-82
2022/08/30 07:52:18;;;;;;;8.93;6.68;;;;;;;24.25;72.73;100248.19;4989046;28;20125;-82
2022/08/30 07:54:44;;;;;;;8.38;6.32;;;;;;;24.36;72.29;100248.88;4988777;28;20049;-82
2022/08/30 07:57:09;;;;;;;11.05;6.82;;;;;;;24.46;70.70;100249.31;4988398;28;20042;-82
2022/08/30 07:59:35;;;;;;;8.90;6.85;;;;;;;24.42;70.36;100252.44;4971507;28;20049;-82
2022/08/30 08:02:00;;;;;;;8.10;6.53;;;;;;;24.52;69.72;100252.84;4989086;28;20586;-82
2022/08/30 08:04:26;;;;;;;7.60;6.47;;;;;;;24.43;69.93;100253.94;4966721;28;20054;-82
2022/08/30 08:06:51;;;;;;;9.13;6.72;;;;;;;24.46;70.23;100257.81;4989271;28;20046;-82
2022/08/30 08:09:17;;;;;;;10.52;6.70;;;;;;;24.36;69.87;100248.88;4988088;28;20047;-82
2022/08/30 08:11:42;;;;;;;10.57;7.10;;;;;;;24.22;71.27;100249.25;4971892;28;20057;-82
2022/08/30 08:14:08;;;;;;;8.18;6.95;;;;;;;24.46;69.40;100247.25;4989003;28;20042;-82
2022/08/30 08:16:37;;;;;;;9.63;6.72;;;;;;;24.47;70.46;100260.09;4988680;28;20051;-82
2022/08/30 08:19:07;;;;;;;11.98;6.72;;;;;;;24.70;70.10;100249.34;4988730;28;20046;-81
2022/08/30 08:21:33;;;;;;;7.47;6.50;;;;;;;24.91;69.40;100252.53;4991622;28;20046;-81
2022/08/30 08:23:58;;;;;;;8.73;6.47;;;;;;;25.08;68.97;100248.19;4991992;28;20053;-82
2022/08/30 08:26:24;;;;;;;8.90;6.80;;;;;;;25.26;67.86;100254.47;4991881;28;20046;-83
2022/08/30 08:28:49;;;;;;;7.30;6.53;;;;;;;25.48;66.56;100259.84;4992660;28;20453;-82
2022/08/30 08:31:25;;;;;;;7.50;6.28;;;;;;;25.71;67.61;100257.53;4992386;28;20138;-83
2022/08/30 08:33:51;;;;;;;9.65;6.53;;;;;;;25.79;65.32;100245.03;4987266;28;20439;-82
2022/08/30 08:36:17;;;;;;;9.45;6.03;;;;;;;25.92;65.15;100258.56;4992536;28;20049;-83
2022/08/30 08:38:43;;;;;;;10.85;6.85;;;;;;;26.06;65.21;100253.69;4991915;28;20057;-83
2022/08/30 08:41:26;;;;;;;8.40;6.00;;;;;;;26.18;64.33;100255.81;4992899;28;20047;-83
2022/08/30 08:43:52;;;;;;;10.20;6.60;;;;;;;26.55;64.11;100248.53;4991916;28;20133;-83
2022/08/30 08:46:31;;;;;;;8.25;6.43;;;;;;;26.43;62.61;100257.25;4992168;28;20125;-82
2022/08/30 08:49:00;;;;;;;6.90;6.18;;;;;;;26.71;61.27;100248.25;4984518;28;20034;-83
2022/08/30 08:54:38;;;;;;;8.23;5.78;;;;;;;26.57;60.04;100235.28;4987100;28;20524;-82
2022/08/30 08:57:04;;;;;;;7.65;6.25;;;;;;;26.78;58.38;100241.91;4973659;28;20038;-82
2022/08/30 08:59:29;;;;;;;7.47;6.25;;;;;;;26.83;58.53;100243.88;4994119;28;20072;-83
2022/08/30 09:01:59;;;;;;;8.68;6.40;;;;;;;26.39;60.55;100238.97;4991950;28;20516;-82
2022/08/30 09:04:34;;;;;;;8.20;5.95;;;;;;;26.73;59.64;100242.75;4994855;28;20125;-82
2022/08/30 09:07:04;;;;;;;7.35;6.00;;;;;;;26.60;59.34;100233.44;4991877;28;20498;-82
2022/08/30 09:09:37;;;;;;;8.52;6.15;;;;;;;26.53;60.27;100232.00;4977166;28;20437;-82
2022/08/30 09:12:03;;;;;;;7.15;5.80;;;;;;;26.75;59.28;100213.78;4991429;28;20045;-82
2022/08/30 09:14:35;;;;;;;6.80;5.80;;;;;;;27.28;59.96;100220.28;4990750;28;20482;-82
2022/08/30 09:17:07;;;;;;;9.25;5.80;;;;;;;27.66;55.97;100204.44;4992251;28;20042;-82
2022/08/30 09:19:38;;;;;;;7.22;6.03;;;;;;;27.93;54.67;100207.22;4991619;28;20114;-82
2022/08/30 09:22:13;;;;;;;6.00;5.40;;;;;;;28.23;54.56;100210.38;4991984;28;20034;-82
2022/08/30 09:24:47;;;;;;;8.23;5.60;;;;;;;28.19;53.63;100198.56;4992292;28;20484;-82
2022/08/30 09:27:26;;;;;;;5.78;5.15;;;;;;;28.14;52.61;100205.97;4990099;28;20044;-82
2022/08/30 09:29:55;;;;;;;6.60;5.28;;;;;;;28.14;51.61;100200.25;4974379;28;20498;-82
2022/08/30 09:32:41;;;;;;;6.95;5.32;;;;;;;28.47;51.19;100200.75;4991063;28;20121;-82
2022/08/30 09:35:12;;;;;;;5.97;4.93;;;;;;;28.60;51.37;100198.53;4989663;28;20057;-82
2022/08/30 09:37:43;;;;;;;8.32;5.78;;;;;;;28.72;51.66;100199.03;4974757;28;20038;-82
2022/08/30 09:43:30;;;;;;;8.05;5.22;;;;;;;28.65;51.42;100191.94;4933952;28;20058;-79
2022/08/30 09:45:58;;;;;;;7.53;4.93;;;;;;;28.67;49.43;100197.84;4918185;29;20114;-79
2022/08/30 09:48:42;;;;;;;7.35;5.60;;;;;;;28.63;50.10;100191.72;4948232;28;20519;-79
2022/08/30 09:51:14;;;;;;;6.25;4.80;;;;;;;28.93;49.90;100188.34;4941060;29;20067;-79
2022/08/30 09:53:51;;;;;;;6.85;5.35;;;;;;;29.17;49.06;100193.63;4936498;28;20047;-79
2022/08/30 09:56:30;;;;;;;6.95;5.03;;;;;;;28.93;48.38;100184.72;4947609;28;20044;-79
2022/08/30 09:59:04;;;;;;;6.53;5.13;;;;;;;28.91;47.37;100188.16;4919736;29;20190;-79
2022/08/30 10:01:34;;;;;;;6.78;4.95;;;;;;;29.01;47.87;100185.53;4970707;29;20074;-96
2022/08/30 10:04:14;;;;;;;8.30;4.95;;;;;;;29.08;49.19;100173.38;4954541;29;20035;-96
2022/08/30 10:06:50;;;;;;;9.07;5.10;;;;;;;29.50;48.57;100180.47;4940517;29;20047;-96
2022/08/30 10:09:48;;;;;;;5.68;4.72;;;;;;;29.64;45.57;100187.56;4940004;29;20292;-96
2022/08/30 10:12:17;;;;;;;6.07;4.30;;;;;;;30.04;45.06;100172.81;4901806;29;20124;-96
2022/08/30 10:14:50;;;;;;;5.20;4.70;;;;;;;29.98;45.33;100178.72;4939604;29;20035;-96
2022/08/30 10:17:37;;;;;;;5.25;4.43;;;;;;;29.91;43.80;100178.72;4923197;29;20505;-79
2022/08/30 10:20:15;;;;;;;6.53;5.13;;;;;;;30.10;43.01;100179.88;4944084;29;20047;-96
2022/08/30 10:22:46;;;;;;;5.63;4.70;;;;;;;30.16;44.20;100176.84;4934436;29;20091;-96
2022/08/30 10:25:25;;;;;;;7.47;4.63;;;;;;;30.34;43.33;100169.97;4929914;29;20528;-96
2022/08/30 10:28:13;;;;;;;5.68;4.32;;;;;;;30.28;45.17;100172.28;4931085;29;20472;-96
2022/08/30 10:30:44;;;;;;;6.32;4.20;;;;;;;30.22;41.82;100168.81;4931130;29;20203;-96
2022/08/30 10:33:22;;;;;;;4.90;4.03;;;;;;;30.47;42.54;100166.94;4964377;23;20081;-83
2022/08/30 10:35:56;;;;;;;5.13;4.35;;;;;;;30.65;42.31;100165.03;4969810;28;20043;-83
2022/08/30 10:38:22;;;;;;;5.43;4.47;;;;;;;30.51;43.02;100166.56;4966873;28;20532;-83
2022/08/30 10:43:40;;;;;;;5.15;4.25;;;;;;;30.12;41.55;100165.00;4963528;28;20058;-82
2022/08/30 10:46:10;;;;;;;5.07;4.10;;;;;;;30.20;41.80;100165.78;4969766;28;20517;-82
2022/08/30 10:48:40;;;;;;;8.65;4.57;;;;;;;30.48;41.07;100162.75;4959188;28;20061;-82
2022/08/30 10:51:10;;;;;;;7.47;4.15;;;;;;;30.53;43.33;100156.06;4958962;28;20411;-82
2022/08/30 10:53:42;;;;;;;5.78;4.15;;;;;;;30.54;40.10;100160.44;4967157;28;20090;-82
2022/08/30 10:56:09;;;;;;;;;;;;;;;30.37;40.20;100154.50;4957095;28;20051;-82
2022/08/30 10:58:37;;;;;;;5.00;3.92;;;;;;;30.37;39.89;100148.78;4964544;28;19918;-83
2022/08/30 11:01:36;;;;;;;5.05;4.10;;;;;;;30.38;41.02;100140.97;4962336;28;20594;-82
2022/08/30 11:04:15;;;;;;;5.55;4.20;;;;;;;30.42;39.89;100142.13;4951662;28;20043;-83
2022/08/30 11:07:03;;;;;;;4.90;3.88;;;;;;;30.31;40.67;100142.50;4965382;28;20126;-83
2022/08/30 11:09:38;;;;;;;5.43;4.10;;;;;;;30.28;41.59;100137.94;4967323;28;20050;-83
2022/08/30 11:12:32;;;;;;;6.68;3.92;;;;;;;30.63;40.39;100138.31;4961771;28;20035;-83
2022/08/30 11:14:59;;;;;;;6.43;3.92;;;;;;;30.74;38.97;100141.53;4959551;28;20051;-83
2022/08/30 11:17:36;;;;;;;6.88;4.30;;;;;;;30.48;38.02;100139.09;4943049;28;20035;-83
2022/08/30 11:20:03;;;;;;;5.10;4.00;;;;;;;30.80;38.52;100132.75;4966511;28;20051;-83
2022/08/30 11:22:33;;;;;;;5.47;4.03;;;;;;;30.90;40.39;100134.41;4964372;28;20049;-83
2022/08/30 11:25:04;;;;;;;5.50;3.78;;;;;;;30.96;37.91;100128.50;4958814;28;20159;-83
2022/08/30 11:27:54;;;;;;;4.55;3.88;;;;;;;30.70;38.61;100137.53;4962085;28;20189;-83
2022/08/30 11:30:42;;;;;;;5.10;4.05;;;;;;;30.63;39.82;100126.84;4964521;28;21761;-83
2022/08/30 11:33:11;;;;;;;4.53;4.00;;;;;;;30.64;40.36;100134.09;4956607;28;20129;-83
2022/08/30 11:35:46;;;;;;;9.18;4.45;;;;;;;30.66;41.73;100119.97;4988599;28;20409;-83
2022/08/30 11:38:24;;;;;;;6.78;4.07;;;;;;;30.77;37.80;100119.59;4962875;28;20414;-84
2022/08/30 11:40:57;;;;;;;5.47;3.78;;;;;;;30.76;38.63;100115.19;4984130;28;20047;-83
2022/08/30 11:43:36;;;;;;;5.70;3.90;;;;;;;30.88;38.21;100111.34;4986376;28;20121;-84
2022/08/30 11:46:15;;;;;;;7.45;4.05;;;;;;;31.00;38.58;100103.09;4984919;28;20111;-84
2022/08/30 11:48:44;;;;;;;4.32;3.67;;;;;;;31.17;38.06;100106.09;4971517;28;20039;-84